Weather at RAF Northolt

Public forecast

Using degrees Celsius for public forecast. Weather courtesy of forecast.io.

Current aviation weather report (METAR) for RAF Northolt

Retrieved 2021/10/23 19:50 UTC (17 minutes ago):

EGWU 231950Z 19005KT 9999 BKN039 12/07 Q1023 NOSIG RMK BLU BLU

Aviation forecast (TAF) for RAF Northolt

Retrieved 2021/10/23 21:03 UTC (0 seconds ago):

TAF TAF EGWU 231953Z 2321/2415 CNL